This is the latest recevied weather packets stored in our database for station/object ED4YAZ-13. If no packets are shown the sender has not sent any weather packets the latest 10 day(s).
| Time | Temp. | Humidity | Pressure | Rain* | Wind** | Luminosity | Snow |
|---|---|---|---|---|---|---|---|
| 1777995111 | 26.67° C | 23% | 1007.2 hPa | - | - | - | - |
| 1777995111 | 26.67° C | 23% | 1007.2 hPa | - | - | - | - |
| 1777994504 | 27.78° C | 22% | 1006.6 hPa | - | - | - | - |
| 1777993904 | 23.33° C | 27% | 1008.5 hPa | - | - | - | - |
| 1777993387 | 20° C | 32% | 1009.6 hPa | - | - | - | - |
| 1777993314 | 20° C | 32% | 1009.6 hPa | - | - | - | - |
| 1777993304 | 20° C | 32% | 1009.6 hPa | - | - | - | - |
| 1777992704 | 18.33° C | 35% | 1010.5 hPa | - | - | - | - |
| 1777992099 | 16.67° C | 34% | 1011.4 hPa | - | - | - | - |
| 1777991499 | 17.22° C | 34% | 1010.8 hPa | - | - | - | - |
| 1777990899 | 18.33° C | 35% | 1010.6 hPa | - | - | - | - |
| 1777990899 | 18.33° C | 35% | 1010.6 hPa | - | - | - | - |
| 1777989730 | 16.11° C | 36% | 1011.6 hPa | - | - | - | - |
| 1777989691 | 16.11° C | 36% | 1011.6 hPa | - | - | - | - |
| 1777989096 | 16.67° C | 35% | 1011.4 hPa | - | - | - | - |
| 1777989091 | 16.67° C | 35% | 1011.4 hPa | - | - | - | - |
| 1777987964 | 17.22° C | 36% | 1011.5 hPa | - | - | - | - |
| 1777987363 | 16.67° C | 37% | 1011.6 hPa | - | - | - | - |
| 1777986763 | 16.11° C | 36% | 1012.1 hPa | - | - | - | - |
| 1777986163 | 16.67° C | 37% | 1011.8 hPa | - | - | - | - |
| 1777985563 | 16.67° C | 37% | 1011.7 hPa | - | - | - | - |
| 1777984963 | 15.56° C | 38% | 1012.5 hPa | - | - | - | - |
| 1777984363 | 16.11° C | 37% | 1012.2 hPa | - | - | - | - |
| 1777984363 | 16.11° C | 37% | 1012.2 hPa | - | - | - | - |
| 1777983763 | 16.11° C | 38% | 1012.1 hPa | - | - | - | - |
* Rain since midnight (hover to see other rain measurements)
** Current wind speed in m/s (hover to see current wind gust speed)